Time;durP1;ratioP1;P1;durP2;ratioP2;P2;SDS_P1;SDS_P2;PMS_P1;PMS_P2;Temp;Humidity;BMP_temperature;BMP_pressure;BME280_temperature;BME280_humidity;BME280_pressure;Samples;Min_cycle;Max_cycle;Signal;HPM_P1;HPM_P2
2022/01/09 00:00:12;;;;;;;20.50;16.00;;;4.20;99.90;;;;;;4907376;29;20051;-48
2022/01/09 00:02:38;;;;;;;18.60;15.75;;;4.20;99.90;;;;;;4907164;29;20419;-48
2022/01/09 00:05:04;;;;;;;17.13;14.60;;;4.30;99.90;;;;;;4911555;29;20044;-47
2022/01/09 00:07:30;;;;;;;19.95;15.55;;;4.20;99.90;;;;;;4890765;29;20510;-47
2022/01/09 00:09:56;;;;;;;19.05;15.18;;;4.30;99.90;;;;;;4891967;29;20056;-46
2022/01/09 00:12:23;;;;;;;17.83;13.20;;;4.20;99.90;;;;;;4880927;29;20061;-47
2022/01/09 00:14:49;;;;;;;18.08;13.68;;;4.30;99.90;;;;;;4892266;29;20071;-48
2022/01/09 00:17:15;;;;;;;17.13;13.55;;;4.30;99.90;;;;;;4919030;29;20490;-47
2022/01/09 00:19:40;;;;;;;19.73;13.95;;;4.30;99.90;;;;;;4906733;29;20492;-48
2022/01/09 00:22:07;;;;;;;17.33;13.70;;;4.40;99.90;;;;;;4920571;29;20067;-48
2022/01/09 00:24:33;;;;;;;16.83;13.18;;;4.40;99.90;;;;;;4904728;29;20059;-47
2022/01/09 00:26:58;;;;;;;17.35;13.15;;;4.30;99.90;;;;;;4905743;29;20056;-47
2022/01/09 00:29:24;;;;;;;18.05;13.68;;;4.40;99.90;;;;;;4880995;29;20602;-48
2022/01/09 00:31:50;;;;;;;18.95;13.43;;;4.30;99.90;;;;;;4905382;29;20154;-47
2022/01/09 00:34:16;;;;;;;18.08;14.02;;;4.50;99.90;;;;;;4889273;29;20052;-48
2022/01/09 00:36:42;;;;;;;17.50;13.80;;;4.30;99.90;;;;;;4909945;29;20421;-47
2022/01/09 00:39:07;;;;;;;17.02;13.27;;;4.40;99.90;;;;;;4891285;29;20048;-48
2022/01/09 00:41:33;;;;;;;19.58;14.30;;;4.40;99.90;;;;;;4906258;29;20059;-47
2022/01/09 00:43:59;;;;;;;20.75;15.27;;;4.30;99.90;;;;;;4906859;29;20466;-48
2022/01/09 00:46:25;;;;;;;21.48;13.93;;;4.30;99.90;;;;;;4906517;29;20579;-47
2022/01/09 00:48:51;;;;;;;23.98;14.80;;;4.40;99.90;;;;;;4873883;29;20067;-46
2022/01/09 00:51:16;;;;;;;22.73;13.93;;;4.40;99.90;;;;;;4918927;29;20477;-47
2022/01/09 00:53:42;;;;;;;17.42;12.65;;;4.30;99.90;;;;;;4921038;29;20056;-47
2022/01/09 00:56:08;;;;;;;20.45;14.38;;;4.50;99.90;;;;;;4893556;29;20059;-47
2022/01/09 00:58:34;;;;;;;18.48;12.75;;;4.40;99.90;;;;;;4910787;29;20155;-48
2022/01/09 01:00:59;;;;;;;13.27;11.75;;;4.40;99.90;;;;;;4915124;29;20132;-49
2022/01/09 01:03:25;;;;;;;16.60;11.73;;;4.40;99.90;;;;;;4912817;29;20407;-49
2022/01/09 01:05:51;;;;;;;19.10;11.25;;;4.50;99.90;;;;;;4912628;29;20051;-47
2022/01/09 01:08:18;;;;;;;15.73;10.25;;;4.60;99.90;;;;;;4907430;29;20047;-47
2022/01/09 01:10:44;;;;;;;14.10;9.35;;;4.60;99.90;;;;;;4909804;29;20051;-50
2022/01/09 01:13:10;;;;;;;15.65;10.57;;;4.70;99.90;;;;;;4902155;29;20060;-47
2022/01/09 01:15:36;;;;;;;15.30;10.02;;;4.60;99.90;;;;;;4916850;29;20590;-48
2022/01/09 01:18:02;;;;;;;16.52;9.55;;;4.60;99.90;;;;;;4907532;29;20056;-47
2022/01/09 01:20:29;;;;;;;17.02;8.57;;;4.70;99.90;;;;;;4888804;29;20062;-46
2022/01/09 01:22:57;;;;;;;17.75;9.38;;;4.70;99.90;;;;;;4907941;29;20572;-47
2022/01/09 01:25:23;;;;;;;15.82;7.95;;;4.80;99.90;;;;;;4906378;29;20595;-48
2022/01/09 01:27:49;;;;;;;14.93;6.90;;;4.80;99.90;;;;;;4909622;29;20112;-47
2022/01/09 01:30:15;;;;;;;13.98;6.78;;;4.90;99.90;;;;;;4916041;29;20491;-47
2022/01/09 01:32:42;;;;;;;15.48;7.60;;;4.90;99.90;;;;;;4914780;29;20054;-48
2022/01/09 01:35:09;;;;;;;17.58;7.68;;;5.00;99.90;;;;;;4909903;29;20410;-47
2022/01/09 01:37:38;;;;;;;22.90;8.07;;;5.00;99.90;;;;;;4897312;29;20071;-47
2022/01/09 01:40:09;;;;;;;23.98;7.63;;;5.00;99.90;;;;;;4912023;29;20075;-47
2022/01/09 01:42:35;;;;;;;18.25;6.22;;;5.00;99.90;;;;;;4912731;29;20468;-48
2022/01/09 01:45:00;;;;;;;21.60;6.80;;;5.10;99.90;;;;;;4910258;29;20048;-47
2022/01/09 01:47:26;;;;;;;18.67;5.95;;;5.10;99.90;;;;;;4912886;29;20052;-49
2022/01/09 01:49:52;;;;;;;21.63;5.90;;;5.10;99.90;;;;;;4910201;29;20048;-48
2022/01/09 01:52:24;;;;;;;21.63;5.57;;;5.20;99.90;;;;;;4914642;29;20526;-47
2022/01/09 01:54:50;;;;;;;21.80;6.38;;;5.10;99.90;;;;;;4890493;29;20388;-48
2022/01/09 01:57:15;;;;;;;20.35;4.70;;;5.20;99.90;;;;;;4905791;29;20052;-47
2022/01/09 01:59:41;;;;;;;24.92;6.10;;;5.20;99.90;;;;;;4905135;29;20052;-48
2022/01/09 02:02:07;;;;;;;22.92;3.88;;;5.20;99.90;;;;;;4888493;29;20064;-48
2022/01/09 02:04:33;;;;;;;25.70;4.32;;;5.20;99.90;;;;;;4905860;29;20582;-47
2022/01/09 02:07:02;;;;;;;29.15;5.40;;;5.20;99.90;;;;;;4913495;29;20056;-48
2022/01/09 02:09:28;;;;;;;21.70;4.28;;;5.20;99.90;;;;;;4900515;29;20051;-47
2022/01/09 02:11:54;;;;;;;34.67;5.55;;;5.30;99.90;;;;;;4905748;29;20084;-49
2022/01/09 02:14:19;;;;;;;31.77;5.20;;;5.20;99.90;;;;;;4910734;29;20862;-48
2022/01/09 02:16:48;;;;;;;42.47;5.50;;;5.30;99.90;;;;;;4908989;29;20094;-50
2022/01/09 02:19:15;;;;;;;35.80;6.22;;;5.30;99.90;;;;;;4903538;29;20056;-47
2022/01/09 02:21:42;;;;;;;41.45;6.55;;;5.30;99.90;;;;;;4905924;29;20048;-47
2022/01/09 02:24:08;;;;;;;37.47;6.82;;;5.30;99.90;;;;;;4891700;29;20055;-47
2022/01/09 02:26:34;;;;;;;37.63;6.10;;;5.40;99.90;;;;;;4907181;29;20060;-47
2022/01/09 02:29:00;;;;;;;36.92;6.78;;;5.30;99.90;;;;;;4902421;29;20041;-47
2022/01/09 02:31:25;;;;;;;45.70;7.38;;;5.30;99.90;;;;;;4880822;29;20076;-48
2022/01/09 02:33:51;;;;;;;48.08;7.28;;;5.30;99.90;;;;;;4897803;29;20060;-47
2022/01/09 02:36:17;;;;;;;55.95;7.68;;;5.50;99.90;;;;;;4887800;29;20059;-47
2022/01/09 02:38:43;;;;;;;52.15;7.88;;;5.40;99.90;;;;;;4868483;29;20564;-47
2022/01/09 02:41:09;;;;;;;55.50;7.60;;;5.50;99.90;;;;;;4899215;29;20096;-47
2022/01/09 02:43:35;;;;;;;58.40;8.50;;;5.50;99.90;;;;;;4898610;29;20048;-46
2022/01/09 02:46:14;;;;;;;47.80;9.52;;;5.50;99.90;;;;;;4891848;29;20509;-48
2022/01/09 02:48:40;;;;;;;56.88;9.57;;;5.50;99.90;;;;;;4887801;29;20060;-47
2022/01/09 02:51:17;;;;;;;60.03;8.50;;;5.40;99.90;;;;;;4903550;29;20446;-48
2022/01/09 02:53:47;;;;;;;52.47;7.03;;;5.40;99.90;;;;;;4901581;29;20513;-47
2022/01/09 02:56:15;;;;;;;49.95;8.20;;;5.50;99.90;;;;;;4900722;29;20060;-48
2022/01/09 02:58:41;;;;;;;53.92;8.55;;;5.50;99.90;;;;;;4901006;29;20052;-48
2022/01/09 03:01:09;;;;;;;46.55;7.50;;;5.50;99.90;;;;;;4904682;29;20507;-47
2022/01/09 03:03:36;;;;;;;46.08;7.93;;;5.50;99.90;;;;;;4881026;29;20539;-47
2022/01/09 03:06:02;;;;;;;48.67;8.00;;;5.50;99.90;;;;;;4893465;29;20052;-47
2022/01/09 03:08:28;;;;;;;58.67;8.93;;;5.50;99.90;;;;;;4904198;29;20492;-47
2022/01/09 03:10:54;;;;;;;55.10;8.23;;;5.50;99.90;;;;;;4902295;29;20055;-49
2022/01/09 03:13:22;;;;;;;58.25;7.97;;;5.50;99.90;;;;;;4907650;29;20095;-47
2022/01/09 03:15:48;;;;;;;45.60;6.95;;;5.50;99.90;;;;;;4898627;29;20056;-46
2022/01/09 03:18:14;;;;;;;56.60;8.45;;;5.50;99.90;;;;;;4890650;29;20091;-47
2022/01/09 03:20:40;;;;;;;47.53;7.60;;;5.40;99.90;;;;;;4889887;29;20052;-47
2022/01/09 03:23:06;;;;;;;47.55;8.90;;;5.50;99.90;;;;;;4904237;29;20059;-46
2022/01/09 03:25:31;;;;;;;41.08;7.53;;;5.50;99.90;;;;;;4896104;29;20056;-49
2022/01/09 03:27:58;;;;;;;38.80;6.75;;;5.50;99.90;;;;;;4873055;29;20436;-55
2022/01/09 03:30:25;;;;;;;39.47;7.88;;;5.40;99.90;;;;;;4881178;29;20555;-50
2022/01/09 03:32:52;;;;;;;37.60;8.02;;;5.50;99.90;;;;;;4889045;29;20053;-47
2022/01/09 03:35:21;;;;;;;34.00;6.20;;;5.50;99.90;;;;;;4890585;29;20075;-47
2022/01/09 03:37:48;;;;;;;46.92;6.78;;;5.50;99.90;;;;;;4871908;29;20061;-47
2022/01/09 03:40:19;;;;;;;35.25;5.97;;;5.50;99.90;;;;;;4889336;29;20125;-48
2022/01/09 03:42:51;;;;;;;38.42;6.85;;;5.50;99.90;;;;;;4889000;29;20201;-49
2022/01/09 03:45:18;;;;;;;40.80;7.75;;;5.50;99.90;;;;;;4872609;29;20053;-47
2022/01/09 03:47:44;;;;;;;40.35;6.88;;;5.40;99.90;;;;;;4888558;29;20053;-47
2022/01/09 03:50:12;;;;;;;48.30;7.25;;;5.40;99.90;;;;;;4887886;29;20056;-48
2022/01/09 03:52:39;;;;;;;33.25;5.65;;;5.40;99.90;;;;;;4887721;29;20393;-49
2022/01/09 03:55:10;;;;;;;39.13;6.18;;;5.40;99.90;;;;;;4872018;29;20064;-46
2022/01/09 03:57:36;;;;;;;41.30;5.18;;;5.40;99.90;;;;;;4856272;29;20056;-47
2022/01/09 04:00:05;;;;;;;34.80;5.60;;;5.40;99.90;;;;;;4889220;29;20417;-47
2022/01/09 04:02:31;;;;;;;30.98;4.65;;;5.40;99.90;;;;;;4871650;29;20056;-48
2022/01/09 04:04:57;;;;;;;33.35;5.88;;;5.40;99.90;;;;;;4888800;29;20083;-47
2022/01/09 04:07:23;;;;;;;27.05;5.22;;;5.40;99.90;;;;;;4888949;29;20500;-49
2022/01/09 04:09:48;;;;;;;33.03;6.80;;;5.40;99.90;;;;;;4888026;29;20508;-47
2022/01/09 04:12:16;;;;;;;37.53;5.10;;;5.30;99.90;;;;;;4888052;29;20060;-48
2022/01/09 04:14:47;;;;;;;33.10;5.43;;;5.40;99.90;;;;;;4888853;29;20103;-47
2022/01/09 04:17:24;;;;;;;29.80;5.85;;;5.30;99.90;;;;;;4889636;29;20556;-49
2022/01/09 04:19:50;;;;;;;37.25;5.93;;;5.30;99.90;;;;;;4888617;29;20060;-47
2022/01/09 04:22:16;;;;;;;27.45;5.78;;;5.30;99.90;;;;;;4887286;29;20049;-48
2022/01/09 04:24:42;;;;;;;33.95;6.00;;;5.30;99.90;;;;;;4888440;29;20555;-47
2022/01/09 04:27:07;;;;;;;38.25;6.15;;;5.30;99.90;;;;;;4872003;29;20533;-48
2022/01/09 04:29:33;;;;;;;34.22;4.55;;;5.30;99.90;;;;;;4888300;29;20522;-48
2022/01/09 04:31:59;;;;;;;35.35;4.85;;;5.20;99.90;;;;;;4889420;29;20451;-49
2022/01/09 04:34:25;;;;;;;33.70;4.43;;;5.20;99.90;;;;;;4900785;29;20052;-46
2022/01/09 04:36:50;;;;;;;22.45;5.22;;;5.20;99.90;;;;;;4907381;29;20048;-49
2022/01/09 04:39:16;;;;;;;38.00;5.63;;;5.20;99.90;;;;;;4906735;29;20123;-51
2022/01/09 04:41:42;;;;;;;32.83;6.57;;;5.20;99.90;;;;;;4889073;29;20443;-46
2022/01/09 04:44:08;;;;;;;30.10;4.88;;;5.20;99.90;;;;;;4908534;29;20063;-48
2022/01/09 04:46:52;;;;;;;27.00;5.03;;;5.10;99.90;;;;;;4892325;29;20064;-47
2022/01/09 04:49:22;;;;;;;27.95;4.85;;;5.20;99.90;;;;;;4908185;29;20055;-48
2022/01/09 04:51:48;;;;;;;31.42;5.78;;;5.20;99.90;;;;;;4906096;29;20056;-51
2022/01/09 04:54:13;;;;;;;35.72;4.95;;;5.20;99.90;;;;;;4906997;29;20563;-46
2022/01/09 04:56:39;;;;;;;21.52;4.50;;;5.20;99.90;;;;;;4907021;29;20522;-48
2022/01/09 04:59:05;;;;;;;23.75;4.70;;;5.20;99.90;;;;;;4891611;29;20063;-48
2022/01/09 05:01:31;;;;;;;23.92;4.40;;;5.20;99.90;;;;;;4888579;29;20066;-50
2022/01/09 05:03:56;;;;;;;23.40;4.45;;;5.20;99.90;;;;;;4885871;29;20052;-47
2022/01/09 05:06:22;;;;;;;23.08;5.13;;;5.20;99.90;;;;;;4911732;29;20654;-48
2022/01/09 05:08:48;;;;;;;29.42;5.22;;;5.20;99.90;;;;;;4891561;29;20060;-47
2022/01/09 05:11:14;;;;;;;22.25;4.03;;;5.20;99.90;;;;;;4912186;29;20379;-48
2022/01/09 05:13:39;;;;;;;25.70;4.65;;;5.10;99.90;;;;;;4916004;29;20063;-48
2022/01/09 05:16:05;;;;;;;30.95;4.45;;;5.10;99.90;;;;;;4916473;29;20499;-46
2022/01/09 05:18:39;;;;;;;24.80;5.57;;;5.10;99.90;;;;;;4905660;29;20062;-48
2022/01/09 05:21:05;;;;;;;24.83;5.90;;;5.10;99.90;;;;;;4914123;29;20055;-48
2022/01/09 05:23:31;;;;;;;29.73;4.13;;;5.10;99.90;;;;;;4916028;29;20055;-48
2022/01/09 05:25:56;;;;;;;27.33;4.25;;;5.10;99.90;;;;;;4902070;29;20047;-47
2022/01/09 05:28:22;;;;;;;31.77;4.55;;;5.10;99.90;;;;;;4901578;29;20313;-47
2022/01/09 05:30:48;;;;;;;29.13;5.95;;;5.10;99.90;;;;;;4906217;29;20075;-48
2022/01/09 05:33:13;;;;;;;21.50;4.30;;;5.10;99.90;;;;;;4905700;29;20138;-47
2022/01/09 05:35:39;;;;;;;23.85;4.00;;;5.10;99.90;;;;;;4889688;29;20104;-49
2022/01/09 05:38:05;;;;;;;21.38;4.10;;;5.10;99.90;;;;;;4874045;29;20052;-47
2022/01/09 05:40:31;;;;;;;20.23;3.40;;;5.10;99.90;;;;;;4905157;29;20083;-47
2022/01/09 05:42:57;;;;;;;26.30;4.95;;;5.10;99.90;;;;;;4909557;29;20044;-47
2022/01/09 05:45:22;;;;;;;25.92;5.07;;;5.00;99.90;;;;;;4913496;29;20827;-48
2022/01/09 05:47:48;;;;;;;28.35;4.82;;;5.00;99.90;;;;;;4908765;29;20131;-49
2022/01/09 05:50:14;;;;;;;21.08;4.07;;;5.10;99.90;;;;;;4899464;29;20091;-47
2022/01/09 05:52:40;;;;;;;24.02;4.03;;;5.10;99.90;;;;;;4914801;29;20051;-51
2022/01/09 05:55:06;;;;;;;24.92;3.75;;;5.10;99.90;;;;;;4887729;29;20048;-47
2022/01/09 05:57:32;;;;;;;25.45;4.32;;;5.10;99.90;;;;;;4887994;29;20048;-47
2022/01/09 05:59:58;;;;;;;25.77;3.45;;;5.10;99.90;;;;;;4888261;29;20119;-47
2022/01/09 06:02:24;;;;;;;20.40;3.60;;;5.10;99.90;;;;;;4905713;29;20084;-47
2022/01/09 06:04:50;;;;;;;25.38;4.00;;;5.10;99.90;;;;;;4910494;29;20063;-47
2022/01/09 06:07:15;;;;;;;16.65;3.15;;;5.20;99.90;;;;;;4875129;29;20071;-47
2022/01/09 06:09:41;;;;;;;18.33;3.28;;;5.10;99.90;;;;;;4914396;29;20178;-47
2022/01/09 06:12:07;;;;;;;21.90;5.30;;;5.20;99.90;;;;;;4920042;29;20059;-47
2022/01/09 06:14:33;;;;;;;27.35;3.63;;;5.10;99.90;;;;;;4906916;29;20052;-49
2022/01/09 06:16:59;;;;;;;17.77;3.58;;;5.10;99.90;;;;;;4911177;29;20131;-47
2022/01/09 06:19:24;;;;;;;19.25;3.15;;;5.00;99.90;;;;;;4909104;29;20519;-46
2022/01/09 06:21:50;;;;;;;25.33;3.78;;;5.00;99.90;;;;;;4911489;29;20059;-48
2022/01/09 06:24:16;;;;;;;14.23;3.33;;;5.00;99.90;;;;;;4915965;29;20048;-48
2022/01/09 06:26:41;;;;;;;18.63;3.38;;;4.90;99.90;;;;;;4895230;29;20106;-46
2022/01/09 06:29:07;;;;;;;21.83;2.90;;;4.90;99.90;;;;;;4887782;29;20174;-47
2022/01/09 06:31:33;;;;;;;15.45;3.40;;;4.80;99.90;;;;;;4906861;29;20055;-47
2022/01/09 06:33:58;;;;;;;17.02;3.08;;;4.80;99.90;;;;;;4889411;29;20570;-50
2022/01/09 06:36:24;;;;;;;17.58;3.03;;;4.70;99.90;;;;;;4899324;29;20138;-51
2022/01/09 06:38:51;;;;;;;15.35;3.60;;;4.70;99.90;;;;;;4909362;29;20506;-46
2022/01/09 06:41:17;;;;;;;7.03;1.88;;;4.60;99.90;;;;;;4897496;29;20532;-49
2022/01/09 06:43:44;;;;;;;12.32;2.38;;;4.50;99.90;;;;;;4903260;29;20059;-46
2022/01/09 06:46:10;;;;;;;11.15;2.83;;;4.50;99.90;;;;;;4905959;29;20064;-46
2022/01/09 06:48:36;;;;;;;21.27;2.92;;;4.50;99.90;;;;;;4909162;29;20147;-48
2022/01/09 06:51:01;;;;;;;15.10;2.85;;;4.40;99.90;;;;;;4920264;29;20514;-48
2022/01/09 06:53:27;;;;;;;13.90;2.35;;;4.40;99.90;;;;;;4926905;29;20050;-50
2022/01/09 06:55:53;;;;;;;13.95;2.20;;;4.40;99.90;;;;;;4905657;29;20060;-47
2022/01/09 06:58:21;;;;;;;16.05;3.28;;;4.40;99.90;;;;;;4891229;29;20063;-48
2022/01/09 07:00:47;;;;;;;14.20;2.58;;;4.30;99.90;;;;;;4913966;29;20063;-48
2022/01/09 07:03:13;;;;;;;12.93;2.65;;;4.30;99.90;;;;;;4896776;29;20514;-50
2022/01/09 07:05:39;;;;;;;14.82;2.95;;;4.30;99.90;;;;;;4923517;29;20063;-48
2022/01/09 07:08:05;;;;;;;16.50;3.88;;;4.30;99.90;;;;;;4907976;29;20051;-49
2022/01/09 07:10:31;;;;;;;10.27;2.10;;;4.30;99.90;;;;;;4913109;29;20076;-47
2022/01/09 07:12:57;;;;;;;18.42;2.70;;;4.30;99.90;;;;;;4889410;29;20075;-46
2022/01/09 07:15:22;;;;;;;13.30;2.15;;;4.40;99.90;;;;;;4907591;29;20079;-47
2022/01/09 07:17:48;;;;;;;13.32;2.38;;;4.40;99.90;;;;;;4907048;29;20052;-47
2022/01/09 07:20:14;;;;;;;12.15;2.53;;;4.40;99.90;;;;;;4913221;29;20043;-47
2022/01/09 07:22:40;;;;;;;14.77;3.00;;;4.40;99.90;;;;;;4888691;29;20052;-47
2022/01/09 07:25:07;;;;;;;16.77;2.55;;;4.50;99.90;;;;;;4907866;29;20484;-47
2022/01/09 07:27:34;;;;;;;13.23;2.28;;;4.50;99.90;;;;;;4915335;29;20511;-48
2022/01/09 07:30:00;;;;;;;12.00;2.00;;;4.40;99.90;;;;;;4912473;29;20086;-47
2022/01/09 07:32:25;;;;;;;13.85;2.47;;;4.40;99.90;;;;;;4923284;29;20197;-47
2022/01/09 07:34:51;;;;;;;14.35;3.35;;;4.40;99.90;;;;;;4897805;29;20479;-47
2022/01/09 07:37:17;;;;;;;16.75;2.50;;;4.30;99.90;;;;;;4918444;29;20063;-47
2022/01/09 07:39:42;;;;;;;15.98;2.67;;;4.30;99.90;;;;;;4918613;29;20058;-47
2022/01/09 07:42:08;;;;;;;17.30;3.78;;;4.20;99.90;;;;;;4917304;29;20404;-48
2022/01/09 07:44:34;;;;;;;13.27;2.42;;;4.20;99.90;;;;;;4914402;29;20138;-48
2022/01/09 07:46:59;;;;;;;17.45;2.38;;;4.20;99.90;;;;;;4914358;29;20130;-47
2022/01/09 07:49:25;;;;;;;18.02;3.55;;;4.20;99.90;;;;;;4917997;29;20422;-47
2022/01/09 07:51:51;;;;;;;18.65;3.40;;;4.20;99.90;;;;;;4915803;29;20326;-48
2022/01/09 07:54:17;;;;;;;18.40;3.53;;;4.30;99.90;;;;;;4911833;29;20052;-47
2022/01/09 07:56:42;;;;;;;20.80;3.28;;;4.30;99.90;;;;;;4910094;29;20074;-49
2022/01/09 07:59:08;;;;;;;21.50;3.40;;;4.30;99.90;;;;;;4908946;29;20040;-48
2022/01/09 08:01:34;;;;;;;15.32;3.13;;;4.30;99.90;;;;;;4894871;29;20055;-47
2022/01/09 08:03:59;;;;;;;16.30;2.70;;;4.30;99.90;;;;;;4913059;29;20559;-48
2022/01/09 08:06:25;;;;;;;18.55;3.70;;;4.40;99.90;;;;;;4875739;29;20063;-52
2022/01/09 08:08:51;;;;;;;16.50;3.08;;;4.40;99.90;;;;;;4889399;29;20052;-48
2022/01/09 08:11:18;;;;;;;18.40;2.78;;;4.40;99.90;;;;;;4908144;29;20975;-47
2022/01/09 08:13:44;;;;;;;26.25;5.25;;;4.40;99.90;;;;;;4911839;29;20411;-48
2022/01/09 08:16:10;;;;;;;24.38;4.60;;;4.40;99.90;;;;;;4915415;29;20072;-50
2022/01/09 08:18:36;;;;;;;12.80;3.33;;;4.40;99.90;;;;;;4895136;29;20048;-48
2022/01/09 08:21:02;;;;;;;33.47;12.70;;;4.40;99.90;;;;;;4912603;29;20501;-47
2022/01/09 08:23:27;;;;;;;35.78;17.15;;;4.40;99.90;;;;;;4910244;29;20159;-47
2022/01/09 08:25:53;;;;;;;26.85;11.35;;;4.40;99.90;;;;;;4889054;29;20081;-48
2022/01/09 08:28:19;;;;;;;35.90;24.17;;;4.40;99.90;;;;;;4906506;29;20056;-48
2022/01/09 08:30:44;;;;;;;30.55;21.95;;;4.40;99.90;;;;;;4891422;29;20052;-47
2022/01/09 08:33:10;;;;;;;28.60;19.02;;;4.40;99.90;;;;;;4898940;29;20475;-48
2022/01/09 08:35:36;;;;;;;27.70;22.00;;;4.40;99.90;;;;;;4896085;29;20515;-47
2022/01/09 08:38:02;;;;;;;24.70;17.83;;;4.40;99.90;;;;;;4875472;29;20136;-48
2022/01/09 08:40:28;;;;;;;16.25;6.43;;;4.40;99.90;;;;;;4889189;29;20048;-47
2022/01/09 08:42:53;;;;;;;17.48;8.32;;;4.40;99.90;;;;;;4873298;29;20226;-47
2022/01/09 08:45:22;;;;;;;14.85;9.48;;;4.50;99.90;;;;;;4906784;29;20483;-48
2022/01/09 08:47:49;;;;;;;12.32;4.20;;;4.50;99.90;;;;;;4907048;29;20095;-48
2022/01/09 08:50:17;;;;;;;13.48;5.32;;;4.50;99.90;;;;;;4883715;29;20516;-47
2022/01/09 08:52:43;;;;;;;18.00;5.38;;;4.50;99.90;;;;;;4897526;29;20527;-48
2022/01/09 08:55:09;;;;;;;32.22;24.17;;;4.60;99.90;;;;;;4889795;29;20663;-48
2022/01/09 08:57:35;;;;;;;20.33;12.02;;;4.60;99.90;;;;;;4868295;29;20053;-47
2022/01/09 09:00:01;;;;;;;20.70;5.70;;;4.60;99.90;;;;;;4897990;29;20120;-49
2022/01/09 09:02:26;;;;;;;19.08;7.30;;;4.60;99.90;;;;;;4898250;29;20052;-49
2022/01/09 09:04:52;;;;;;;22.15;6.13;;;4.70;99.90;;;;;;4906018;29;20083;-47
2022/01/09 09:07:23;;;;;;;18.30;4.65;;;4.70;99.90;;;;;;4872957;29;20102;-47
2022/01/09 09:09:50;;;;;;;17.88;5.88;;;4.60;99.90;;;;;;4903840;29;20062;-47
2022/01/09 09:12:16;;;;;;;20.90;9.50;;;4.70;99.90;;;;;;4896332;29;20056;-47
2022/01/09 09:14:42;;;;;;;29.55;19.05;;;4.60;99.90;;;;;;4904418;29;20551;-48
2022/01/09 09:17:08;;;;;;;19.17;4.28;;;4.70;99.90;;;;;;4899149;29;20131;-50
2022/01/09 09:19:33;;;;;;;17.48;7.28;;;4.60;99.90;;;;;;4903192;29;20052;-47
2022/01/09 09:21:59;;;;;;;14.73;4.47;;;4.70;99.90;;;;;;4886201;29;20056;-46
2022/01/09 09:24:25;;;;;;;10.48;3.30;;;4.70;99.90;;;;;;4895281;29;20122;-47
2022/01/09 09:26:51;;;;;;;5.85;1.90;;;4.70;99.90;;;;;;4910568;29;20192;-47
2022/01/09 09:29:16;;;;;;;8.18;2.55;;;4.70;99.90;;;;;;4885054;29;20618;-48
2022/01/09 09:31:42;;;;;;;11.02;3.58;;;4.70;99.90;;;;;;4883003;29;20056;-46
2022/01/09 09:34:08;;;;;;;9.13;3.00;;;4.70;99.90;;;;;;4907642;29;20044;-46
2022/01/09 09:36:37;;;;;;;12.70;2.72;;;4.70;99.90;;;;;;4885939;29;20061;-46
2022/01/09 09:39:04;;;;;;;8.45;2.80;;;4.70;99.90;;;;;;4900568;29;20553;-47
2022/01/09 09:41:31;;;;;;;8.02;1.70;;;4.60;99.90;;;;;;4891324;29;20056;-47
2022/01/09 09:43:56;;;;;;;7.80;2.42;;;4.60;99.90;;;;;;4911923;29;20048;-47
2022/01/09 09:46:23;;;;;;;6.38;2.10;;;4.60;99.90;;;;;;4884268;29;20059;-48
2022/01/09 09:48:51;;;;;;;3.20;1.20;;;4.50;99.90;;;;;;4911548;29;20083;-48
2022/01/09 09:51:17;;;;;;;7.82;3.67;;;4.50;99.90;;;;;;4903131;29;20052;-47
2022/01/09 09:53:43;;;;;;;8.63;5.70;;;4.60;99.90;;;;;;4901054;29;20292;-47
2022/01/09 09:56:09;;;;;;;7.72;3.42;;;4.60;99.90;;;;;;4887205;29;20060;-48
2022/01/09 09:58:39;;;;;;;5.80;2.70;;;4.60;99.90;;;;;;4905198;29;20063;-47
2022/01/09 10:01:05;;;;;;;9.18;2.70;;;4.60;99.90;;;;;;4905671;29;20043;-49
2022/01/09 10:03:33;;;;;;;10.55;2.30;;;4.70;99.90;;;;;;4913293;29;20597;-47
2022/01/09 10:05:59;;;;;;;9.55;2.47;;;4.70;99.90;;;;;;4908007;29;20472;-48
2022/01/09 10:08:37;;;;;;;10.63;5.35;;;4.80;99.90;;;;;;4894449;29;20055;-46
2022/01/09 10:11:15;;;;;;;11.27;2.03;;;4.90;99.90;;;;;;4908360;29;20051;-49
2022/01/09 10:13:41;;;;;;;13.02;2.90;;;5.00;99.90;;;;;;4891222;29;20063;-48
2022/01/09 10:16:09;;;;;;;12.85;2.60;;;5.00;99.90;;;;;;4908710;29;20062;-47
2022/01/09 10:18:46;;;;;;;10.15;1.95;;;5.10;99.90;;;;;;4905460;29;20135;-47
2022/01/09 10:21:20;;;;;;;10.82;3.42;;;5.10;99.90;;;;;;4914324;29;20503;-47
2022/01/09 10:24:07;;;;;;;12.60;3.25;;;5.20;99.90;;;;;;4923343;29;20044;-47
2022/01/09 10:26:39;;;;;;;12.68;3.38;;;5.30;99.90;;;;;;4924416;29;20063;-50
2022/01/09 10:29:07;;;;;;;13.07;5.43;;;5.30;99.90;;;;;;4921326;29;20066;-48
2022/01/09 10:31:43;;;;;;;14.10;4.47;;;5.40;99.90;;;;;;4913673;29;20115;-47
2022/01/09 10:34:10;;;;;;;13.63;5.45;;;5.40;99.90;;;;;;4913621;29;20131;-49
2022/01/09 10:36:39;;;;;;;19.08;5.13;;;5.40;99.90;;;;;;4894904;29;20060;-47
2022/01/09 10:39:10;;;;;;;14.13;3.45;;;5.50;99.90;;;;;;4909067;29;20055;-49
2022/01/09 10:41:49;;;;;;;11.80;2.83;;;5.50;99.90;;;;;;4890783;29;20067;-47
2022/01/09 10:44:21;;;;;;;14.27;2.97;;;5.60;99.90;;;;;;4901498;29;20063;-49
2022/01/09 10:46:54;;;;;;;12.25;2.20;;;5.70;99.90;;;;;;4908711;29;20044;-48
2022/01/09 10:49:20;;;;;;;11.93;2.40;;;5.80;99.90;;;;;;4908156;29;20063;-49
2022/01/09 10:51:45;;;;;;;15.57;2.80;;;5.80;99.90;;;;;;4911642;29;20491;-46
2022/01/09 10:54:28;;;;;;;17.13;5.70;;;5.80;99.90;;;;;;4914550;29;20059;-48
2022/01/09 10:57:31;;;;;;;8.85;2.42;;;5.90;99.90;;;;;;4908457;29;20091;-46
2022/01/09 11:00:17;;;;;;;12.40;3.63;;;5.90;99.90;;;;;;4849566;29;20053;-47
2022/01/09 11:02:45;;;;;;;11.52;2.17;;;5.80;99.90;;;;;;4844477;29;20077;-48
2022/01/09 11:05:11;;;;;;;10.48;4.50;;;5.90;99.90;;;;;;4849086;29;20506;-47
2022/01/09 11:07:37;;;;;;;8.07;1.70;;;5.90;99.90;;;;;;4830778;29;20068;-47
2022/01/09 11:10:06;;;;;;;9.65;2.80;;;5.90;99.90;;;;;;4847362;29;20527;-47
2022/01/09 11:12:42;;;;;;;15.43;2.67;;;5.90;99.90;;;;;;4848695;29;20145;-48
2022/01/09 11:15:09;;;;;;;11.90;2.33;;;5.90;99.90;;;;;;4854691;29;20441;-48
2022/01/09 11:17:36;;;;;;;8.07;2.03;;;5.90;99.90;;;;;;4845645;29;20064;-47
2022/01/09 11:20:01;;;;;;;9.30;2.03;;;5.90;99.90;;;;;;4852412;29;20506;-48
2022/01/09 11:22:28;;;;;;;9.13;2.30;;;5.90;99.90;;;;;;4852119;29;20053;-47
2022/01/09 11:25:09;;;;;;;11.82;2.47;;;5.90;99.90;;;;;;4850173;29;20558;-48
2022/01/09 11:27:47;;;;;;;12.00;2.22;;;5.80;99.90;;;;;;4834373;29;20128;-47
2022/01/09 11:30:21;;;;;;;15.10;2.15;;;5.80;99.90;;;;;;4824630;29;20172;-47
2022/01/09 11:33:12;;;;;;;13.20;2.50;;;5.90;99.90;;;;;;4811887;29;20097;-47
2022/01/09 11:35:50;;;;;;;12.95;2.40;;;5.90;99.90;;;;;;4874107;29;20108;-50
2022/01/09 11:38:38;;;;;;;10.48;2.25;;;5.90;99.90;;;;;;4854455;29;20108;-48
2022/01/09 11:41:25;;;;;;;9.23;2.30;;;5.90;99.90;;;;;;4885050;29;20044;-49
2022/01/09 11:44:08;;;;;;;15.82;2.50;;;5.80;99.90;;;;;;4885460;29;20056;-48
2022/01/09 11:47:01;;;;;;;89.72;55.30;;;5.70;99.90;;;;;;4890480;29;20506;-48
2022/01/09 11:49:28;;;;;;;18.50;5.25;;;5.80;99.90;;;;;;4882858;29;20056;-47
2022/01/09 11:51:57;;;;;;;24.85;4.30;;;5.90;99.90;;;;;;4875946;29;20052;-47
2022/01/09 11:54:24;;;;;;;23.40;5.00;;;5.90;99.90;;;;;;4891672;29;20056;-47
2022/01/09 11:56:57;;;;;;;17.33;5.50;;;6.00;99.90;;;;;;4872068;29;20083;-50
2022/01/09 11:59:37;;;;;;;6.00;1.55;;;6.00;99.90;;;;;;4871964;29;20464;-47
2022/01/09 12:02:16;;;;;;;8.10;2.22;;;6.00;99.90;;;;;;4889173;29;20112;-47
2022/01/09 12:04:41;;;;;;;7.57;2.33;;;5.90;99.90;;;;;;4887904;29;20411;-47
2022/01/09 12:07:11;;;;;;;9.45;1.80;;;5.90;99.90;;;;;;4894179;29;20045;-47
2022/01/09 12:09:48;;;;;;;9.77;2.58;;;5.90;99.90;;;;;;4874302;29;20054;-48
2022/01/09 12:12:19;;;;;;;7.15;1.85;;;5.90;99.90;;;;;;4888029;29;20465;-49
2022/01/09 12:14:53;;;;;;;37.92;28.02;;;5.90;99.90;;;;;;4854417;29;20136;-49
2022/01/09 12:17:22;;;;;;;12.20;7.43;;;5.90;99.90;;;;;;4888632;29;20485;-49
2022/01/09 12:20:10;;;;;;;12.18;3.50;;;5.80;99.90;;;;;;4878621;29;20543;-47
2022/01/09 12:22:53;;;;;;;11.32;3.10;;;5.90;99.90;;;;;;4871506;29;20080;-47
2022/01/09 12:25:24;;;;;;;11.18;4.25;;;5.90;99.90;;;;;;4893434;29;20064;-47
2022/01/09 12:27:56;;;;;;;7.40;3.53;;;5.90;99.90;;;;;;4900770;29;20528;-48
2022/01/09 12:30:47;;;;;;;7.13;2.00;;;5.90;99.90;;;;;;4888915;29;20388;-47
2022/01/09 12:33:18;;;;;;;10.63;2.78;;;6.00;99.90;;;;;;4905443;29;20134;-48
2022/01/09 12:35:51;;;;;;;5.45;1.38;;;6.10;99.90;;;;;;4905073;29;20094;-48
2022/01/09 12:38:19;;;;;;;4.82;1.55;;;6.10;99.90;;;;;;4902792;29;20126;-47
2022/01/09 12:40:46;;;;;;;5.55;1.23;;;6.20;99.90;;;;;;4906537;29;20052;-48
2022/01/09 12:43:21;;;;;;;5.63;1.92;;;6.10;99.90;;;;;;4907293;29;20586;-49
2022/01/09 12:45:47;;;;;;;4.63;1.30;;;6.10;99.90;;;;;;4900344;29;20050;-49
2022/01/09 12:48:19;;;;;;;3.40;1.10;;;6.00;99.90;;;;;;4921028;29;20434;-48